| time (UTC) | temp F | wind direction | speed knots | gust knots | rain 1hr in | rain 24hr in | rain mn in | humidity % | barometer mb |
| 20260507104001 | 71 | 0.0 | 0.0 | 0.00 | 0.00 | 0.00 | 60 | 1010.5 | |
| 20260507103001 | 71 | 0.0 | 0.0 | 0.00 | 0.00 | 0.00 | 59 | 1010.4 | |
| 20260507102001 | 70 | 0.0 | 0.0 | 0.00 | 0.00 | 0.00 | 60 | 1010.5 | |
| 20260507101001 | 69 | 0.0 | 0.0 | 0.00 | 0.00 | 0.00 | 61 | 1010.6 | |
| 20260507100001 | 70 | 0.0 | 0.0 | 0.00 | 0.00 | 0.00 | 60 | 1010.5 | |
| 20260507095001 | 70 | 0.0 | 0.0 | 0.00 | 0.00 | 0.00 | 60 | 1010.3 | |
| 20260507094001 | 70 | 0.0 | 0.0 | 0.00 | 0.00 | 0.00 | 61 | 1010.3 | |
| 20260507093001 | 70 | 0.0 | 0.0 | 0.00 | 0.00 | 0.00 | 61 | 1010.2 | |
| 20260507092001 | 69 | 0.0 | 0.0 | 0.00 | 0.00 | 0.00 | 62 | 1010.2 | |
| 20260507091001 | 70 | 0.0 | 0.0 | 0.00 | 0.00 | 0.00 | 62 | 1010.1 | |
| 20260507090001 | 70 | 0.0 | 0.0 | 0.00 | 0.00 | 0.00 | 62 | 1009.8 | |
| 20260507085001 | 69 | 0.0 | 0.0 | 0.00 | 0.00 | 0.00 | 64 | 1009.8 | |
| 20260507084001 | 67 | 0.0 | 0.0 | 0.00 | 0.00 | 0.00 | 67 | 1009.7 | |
| 20260507083001 | 70 | 0.0 | 0.0 | 0.00 | 0.00 | 0.00 | 62 | 1009.6 | |
| 20260507082001 | 70 | 0.0 | 0.0 | 0.00 | 0.00 | 0.00 | 65 | 1009.4 | |
| 20260507081001 | 66 | 0.0 | 0.0 | 0.00 | 0.00 | 0.00 | 71 | 1009.5 | |
| 20260507080001 | 66 | 0.0 | 0.0 | 0.00 | 0.00 | 0.00 | 70 | 1009.5 | |
| 20260507075001 | 65 | 0.0 | 0.0 | 0.00 | 0.00 | 0.00 | 71 | 1009.4 | |
| 20260507074001 | 66 | 0.0 | 0.0 | 0.00 | 0.00 | 0.00 | 68 | 1009.1 | |
| 20260507073001 | 7 | 0.0 | 0.0 | 0.00 | 0.00 | 0.00 | 68 | 19.8 | |
| 20260507072001 | 66 | 0.0 | 0.0 | 0.00 | 0.00 | 0.00 | 70 | 1008.8 | |
| 20260507071001 | 66 | 0.0 | 0.0 | 0.00 | 0.00 | 0.00 | 70 | 1008.8 | |
| 20260507070001 | 65 | 0.0 | 0.0 | 0.00 | 0.00 | 0.00 | 71 | 1008.6 | |
| 20260507065001 | 64 | 0.0 | 0.0 | 0.00 | 0.00 | 0.00 | 72 | 1008.6 | |
| 20260507064000 | 63 | 0.0 | 0.0 | 0.00 | 0.00 | 0.00 | 75 | 1008.7 | |
| 20260507063000 | 62 | 0.0 | 0.0 | 0.00 | 0.00 | 0.00 | 77 | 1008.6 | |
| 20260507062000 | 61 | 0.0 | 0.0 | 0.00 | 0.00 | 0.00 | 77 | 1008.6 | |
| 20260507061000 | 62 | 0.0 | 0.0 | 0.00 | 0.00 | 0.00 | 77 | 1008.5 | |
| 20260507060000 | 61 | 0.0 | 0.0 | 0.00 | 0.00 | 0.00 | 78 | 1008.3 | |
| 20260507055000 | 61 | 0.0 | 0.0 | 0.00 | 0.00 | 0.00 | 78 | 1008.2 | |
| 20260507054000 | 61 | 0.0 | 0.0 | 0.00 | 0.00 | 0.00 | 78 | 1008.2 | |
| 20260507053000 | 61 | 0.0 | 0.0 | 0.00 | 0.00 | 0.00 | 77 | 1008.1 | |
| 20260507052000 | 61 | 0.0 | 0.0 | 0.00 | 0.00 | 0.00 | 76 | 1008.0 | |
| 20260507051000 | 61 | 0.0 | 0.0 | 0.00 | 0.00 | 0.00 | 75 | 1007.8 | |
| 20260507050000 | 61 | 0.0 | 0.0 | 0.00 | 0.00 | 0.00 | 74 | 1007.9 | |
| 20260507045001 | 61 | 0.0 | 0.0 | 0.00 | 0.00 | 0.00 | 73 | 1007.6 | |
| 20260507044001 | 62 | 0.0 | 0.0 | 0.00 | 0.00 | 0.00 | 73 | 1007.5 | |
| 20260507043001 | 62 | 0.0 | 0.0 | 0.00 | 0.00 | 0.00 | 72 | 1007.4 | |
| 20260507042001 | 61 | 0.0 | 0.0 | 0.00 | 0.00 | 0.00 | 73 | 1007.2 | |
| 20260507041001 | 61 | 0.0 | 0.0 | 0.00 | 0.00 | 0.00 | 73 | 1007.2 | |
| 20260507040001 | 61 | 0.0 | 0.0 | 0.00 | 0.00 | 0.00 | 74 | 1007.0 | |
| 20260507035001 | 61 | 0.0 | 0.0 | 0.00 | 0.00 | 0.00 | 75 | 1007.0 | |
| 20260507034001 | 60 | 0.0 | 0.0 | 0.00 | 0.00 | 0.00 | 76 | 1007.0 | |
| 20260507033001 | 60 | 0.0 | 0.0 | 0.00 | 0.00 | 0.00 | 76 | 1006.8 | |
| 20260507032001 | 60 | 0.0 | 0.0 | 0.00 | 0.00 | 0.00 | 76 | 1006.8 | |
| 20260507031001 | 59 | 0.0 | 0.0 | 0.00 | 0.00 | 0.00 | 77 | 1006.7 | |
| 20260507030001 | 59 | 0.0 | 0.0 | 0.00 | 0.00 | 0.00 | 77 | 1006.5 | |
| 20260507025001 | 59 | 0.0 | 0.0 | 0.00 | 0.00 | 0.00 | 77 | 1006.6 | |
| 20260507024001 | 59 | 0.0 | 0.0 | 0.00 | 0.00 | 0.00 | 77 | 1006.6 | |
| 20260507023001 | 59 | 0.0 | 0.0 | 0.00 | 0.00 | 0.00 | 76 | 1006.6 | |
| 20260507022001 | 59 | 0.0 | 0.0 | 0.00 | 0.00 | 0.00 | 75 | 1006.5 | |
| 20260507021001 | 60 | 0.0 | 0.0 | 0.00 | 0.00 | 0.00 | 74 | 1006.4 | |
| 20260507020001 | 61 | 0.0 | 0.0 | 0.00 | 0.00 | 0.00 | 72 | 1006.3 | |
| 20260507015001 | 61 | 0.0 | 0.0 | 0.00 | 0.00 | 0.00 | 72 | 1006.3 | |
| 20260507014001 | 61 | 0.0 | 0.0 | 0.00 | 0.00 | 0.00 | 71 | 1006.3 | |
| 20260507013001 | 62 | 0.0 | 0.0 | 0.00 | 0.00 | 0.00 | 70 | 1006.4 | |
| 20260507012001 | 62 | 0.0 | 0.0 | 0.00 | 0.00 | 0.00 | 69 | 1006.3 | |
| 20260507011001 | 62 | 0.0 | 0.0 | 0.00 | 0.00 | 0.00 | 69 | 1006.1 | |
| 20260507010001 | 63 | 0.0 | 0.0 | 0.00 | 0.00 | 0.00 | 68 | 1006.0 | |
| 20260507005001 | 63 | 0.0 | 0.0 | 0.00 | 0.00 | 0.00 | 68 | 1006.0 | |
| 20260507004001 | 63 | 0.0 | 0.0 | 0.00 | 0.00 | 0.00 | 68 | 1006.2 | |
| 20260507003001 | 63 | 0.0 | 0.0 | 0.00 | 0.00 | 0.00 | 67 | 1006.1 | |
| 20260507002001 | 63 | 0.0 | 0.0 | 0.00 | 0.00 | 0.00 | 67 | 1006.1 | |
| 20260507001000 | 64 | 0.0 | 0.0 | 0.00 | 0.00 | 0.00 | 67 | 1006.1 | |
| 20260507000000 | 64 | 0.0 | 0.0 | 0.00 | 0.00 | 0.00 | 66 | 1006.1 | |
| 20260506235000 | 64 | 0.0 | 0.0 | 0.00 | 0.00 | 0.00 | 65 | 1006.2 | |
| 20260506234000 | 64 | 0.0 | 0.0 | 0.00 | 0.00 | 0.00 | 65 | 1006.2 | |
| 20260506233000 | 64 | 0.0 | 0.0 | 0.00 | 0.00 | 0.00 | 65 | 1006.2 | |
| 20260506232000 | 64 | 0.0 | 0.0 | 0.00 | 0.00 | 0.00 | 66 | 1006.2 | |
| 20260506231000 | 64 | 0.0 | 0.0 | 0.00 | 0.00 | 0.00 | 65 | 1006.2 | |
| 20260506230000 | 64 | 0.0 | 0.0 | 0.00 | 0.00 | 0.00 | 64 | 1006.2 | |
| 20260506225000 | 64 | 0.0 | 0.0 | 0.00 | 0.00 | 0.00 | 64 | 1006.2 | |
| 20260506224000 | 65 | 0.0 | 0.0 | 0.00 | 0.00 | 0.00 | 63 | 1006.2 | |
| 20260506223000 | 65 | 0.0 | 0.0 | 0.00 | 0.00 | 0.00 | 62 | 1006.3 | |
| 20260506222000 | 65 | 0.0 | 0.0 | 0.00 | 0.00 | 0.00 | 62 | 1006.2 | |
| 20260506221000 | 65 | 0.0 | 0.0 | 0.00 | 0.00 | 0.00 | 62 | 1006.1 | |
| 20260506220001 | 66 | 0.0 | 0.0 | 0.00 | 0.00 | 0.00 | 61 | 1006.1 | |
| 20260506215001 | 65 | 0.0 | 0.0 | 0.00 | 0.00 | 0.00 | 62 | 1006.2 | |
| 20260506214001 | 65 | 0.0 | 0.0 | 0.00 | 0.00 | 0.00 | 61 | 1006.2 | |
| 20260506213001 | 64 | 0.0 | 0.0 | 0.00 | 0.00 | 0.00 | 63 | 1006.1 | |
| 20260506212001 | 64 | 0.0 | 0.0 | 0.00 | 0.00 | 0.00 | 63 | 1006.1 | |
| 20260506211001 | 64 | 0.0 | 0.0 | 0.00 | 0.00 | 0.00 | 64 | 1006.2 | |
| 20260506210001 | 65 | 0.0 | 0.0 | 0.00 | 0.00 | 0.00 | 65 | 1006.2 | |
| 20260506205001 | 65 | 0.0 | 0.0 | 0.00 | 0.00 | 0.00 | 64 | 1006.0 | |
| 20260506204001 | 65 | 0.0 | 0.0 | 0.00 | 0.00 | 0.00 | 63 | 1006.1 | |
| 20260506203001 | 66 | 0.0 | 0.0 | 0.00 | 0.00 | 0.00 | 62 | 1005.9 | |
| 20260506202001 | 66 | 0.0 | 0.0 | 0.00 | 0.00 | 0.00 | 61 | 1006.0 | |
| 20260506200001 | 66 | 0.0 | 0.0 | 0.00 | 0.00 | 0.00 | 60 | 1005.9 | |
| 20260506195001 | 67 | 0.0 | 0.0 | 0.00 | 0.00 | 0.00 | 60 | 1005.7 | |
| 20260506194001 | 67 | 0.0 | 0.0 | 0.00 | 0.00 | 0.00 | 59 | 1005.7 | |
| 20260506193001 | 67 | 0.0 | 0.0 | 0.00 | 0.00 | 0.00 | 59 | 1005.6 | |
| 20260506192001 | 67 | 0.0 | 0.0 | 0.00 | 0.00 | 0.00 | 59 | 1005.7 | |
| 20260506191001 | 67 | 0.0 | 0.0 | 0.00 | 0.00 | 0.00 | 60 | 1005.8 | |
| 20260506190001 | 67 | 0.0 | 0.0 | 0.00 | 0.00 | 0.00 | 61 | 1005.7 | |
| 20260506185001 | 67 | 0.0 | 0.0 | 0.00 | 0.00 | 0.00 | 60 | 1005.7 | |
| 20260506184001 | 68 | 0.0 | 0.0 | 0.00 | 0.00 | 0.00 | 61 | 1005.5 | |
| 20260506183001 | 68 | 0.0 | 0.0 | 0.00 | 0.00 | 0.00 | 60 | 1005.4 | |
| 20260506182001 | 68 | 0.0 | 0.0 | 0.00 | 0.00 | 0.00 | 60 | 1005.4 | |
| 20260506181001 | 69 | 0.0 | 0.0 | 0.00 | 0.00 | 0.00 | 60 | 6.0 | |
| 20260506180001 | 69 | 0.0 | 0.0 | 0.00 | 0.00 | 0.00 | 60 | 1005.3 | |
| 20260506175001 | 70 | 0.0 | 0.0 | 0.00 | 0.00 | 0.00 | 58 | 1005.3 | |
| 20260506174001 | 70 | 0.0 | 0.0 | 0.00 | 0.00 | 0.00 | 58 | 1005.2 | |
| 20260506173000 | 69 | 0.0 | 0.0 | 0.00 | 0.00 | 0.00 | 60 | 1005.2 | |
| 20260506172000 | 69 | 0.0 | 0.0 | 0.00 | 0.00 | 0.00 | 64 | 1005.3 | |
| 20260506171000 | 68 | 0.0 | 0.0 | 0.00 | 0.00 | 0.00 | 66 | 1005.3 | |
| 20260506170000 | 68 | 0.0 | 0.0 | 0.00 | 0.00 | 0.00 | 68 | 1005.3 | |
| 20260506165000 | 68 | 0.0 | 0.0 | 0.00 | 0.00 | 0.00 | 64 | 1005.3 | |
| 20260506164000 | 67 | 0.0 | 0.0 | 0.00 | 0.00 | 0.00 | 67 | 1005.4 | |
| 20260506163000 | 67 | 0.0 | 0.0 | 0.00 | 0.00 | 0.00 | 68 | 1005.4 | |
| 20260506162000 | 67 | 0.0 | 0.0 | 0.00 | 0.00 | 0.00 | 66 | 1005.5 | |
| 20260506161000 | 67 | 0.0 | 0.0 | 0.00 | 0.00 | 0.00 | 63 | 1005.5 | |
| 20260506160000 | 67 | 0.0 | 0.0 | 0.00 | 0.00 | 0.00 | 66 | 1005.5 | |
| 20260506155000 | 69 | 0.0 | 0.0 | 0.00 | 0.00 | 0.00 | 62 | 1005.8 | |
| 20260506154001 | 74 | 0.0 | 0.0 | 0.00 | 0.00 | 0.00 | 47 | 1005.5 | |
| 20260506153001 | 75 | 0.0 | 0.0 | 0.00 | 0.00 | 0.00 | 45 | 1005.6 | |
| 20260506152001 | 76 | 0.0 | 0.0 | 0.00 | 0.00 | 0.00 | 43 | 1005.7 | |
| 20260506151001 | 77 | 0.0 | 0.0 | 0.00 | 0.00 | 0.00 | 43 | 1005.6 | |
| 20260506150002 | 77 | 0.0 | 0.0 | 0.00 | 0.00 | 0.00 | 42 | 1005.7 | |
| 20260506145001 | 77 | 0.0 | 0.0 | 0.00 | 0.00 | 0.00 | 44 | 1005.8 | |
| 20260506144001 | 77 | 0.0 | 0.0 | 0.00 | 0.00 | 0.00 | 43 | 1005.9 | |
| 20260506143001 | 77 | 0.0 | 0.0 | 0.00 | 0.00 | 0.00 | 44 | 1006.0 | |
| 20260506142001 | 78 | 0.0 | 0.0 | 0.00 | 0.00 | 0.00 | 42 | 1006.0 | |
| 20260506141001 | 78 | 0.0 | 0.0 | 0.00 | 0.00 | 0.00 | 42 | 1006.0 | |
| 20260506140001 | 78 | 0.0 | 0.0 | 0.00 | 0.00 | 0.00 | 42 | 1006.1 | |
| 20260506135001 | 77 | 0.0 | 0.0 | 0.00 | 0.00 | 0.00 | 42 | 1006.2 | |
| 20260506134001 | 77 | 0.0 | 0.0 | 0.00 | 0.00 | 0.00 | 43 | 1006.1 | |
| 20260506133001 | 77 | 0.0 | 0.0 | 0.00 | 0.00 | 0.00 | 44 | 1006.2 | |
| 20260506132001 | 75 | 0.0 | 0.0 | 0.00 | 0.00 | 0.00 | 44 | 266.4 | |
| 20260506131001 | 77 | 0.0 | 0.0 | 0.00 | 0.00 | 0.00 | 44 | 1006.3 | |
| 20260506130001 | 78 | 0.0 | 0.0 | 0.00 | 0.00 | 0.00 | 44 | 1006.4 | |
| 20260506125001 | 77 | 0.0 | 0.0 | 0.00 | 0.00 | 0.00 | 45 | 1006.4 | |
| 20260506124001 | 76 | 0.0 | 0.0 | 0.00 | 0.00 | 0.00 | 46 | 1006.5 | |
| 20260506123001 | 77 | 0.0 | 0.0 | 0.00 | 0.00 | 0.00 | 45 | 1006.6 | |
| 20260506122001 | 77 | 0.0 | 0.0 | 0.00 | 0.00 | 0.00 | 45 | 1006.7 | |
| 20260506121001 | 77 | 0.0 | 0.0 | 0.00 | 0.00 | 0.00 | 44 | 1006.7 | |
| 20260506120001 | 77 | 0.0 | 0.0 | 0.00 | 0.00 | 0.00 | 45 | 1006.5 | |
| 20260506115001 | 79 | 0.0 | 0.0 | 0.00 | 0.00 | 0.00 | 42 | 1006.7 | |
| 20260506114002 | 83 | 0.0 | 0.0 | 0.00 | 0.00 | 0.00 | 40 | 1006.0 | |
| 20260506113001 | 82 | 0.0 | 0.0 | 0.00 | 0.00 | 0.00 | 41 | 1006.7 | |
| 20260506112001 | 80 | 0.0 | 0.0 | 0.00 | 0.00 | 0.00 | 42 | 1006.8 | |
| 20260506111001 | 81 | 0.0 | 0.0 | 0.00 | 0.00 | 0.00 | 42 | 1006.7 | |
| 20260506110001 | 81 | 0.0 | 0.0 | 0.00 | 0.00 | 0.00 | 42 | 1006.7 | |
| 20260506105001 | 80 | 0.0 | 0.0 | 0.00 | 0.00 | 0.00 | 43 | 1006.8 |